Time;durP1;ratioP1;P1;durP2;ratioP2;P2;SDS_P1;SDS_P2;PMS_P1;PMS_P2;Temp;Humidity;BMP_temperature;BMP_pressure;BME280_temperature;BME280_humidity;BME280_pressure;Samples;Min_cycle;Max_cycle;Signal;HPM_P1;HPM_P2
2022/09/25 00:01:30;;;;;;;4.25;1.63;;;19.40;72.50;;;;;;5071776;28;20028;-56
2022/09/25 00:03:59;;;;;;;4.28;1.70;;;19.40;72.20;;;;;;5072009;28;20028;-56
2022/09/25 00:06:28;;;;;;;4.35;1.80;;;19.40;71.90;;;;;;5072343;28;20021;-56
2022/09/25 00:08:58;;;;;;;5.18;2.13;;;19.40;71.20;;;;;;5072054;28;20048;-56
2022/09/25 00:11:31;;;;;;;5.47;2.00;;;19.40;70.50;;;;;;5071976;28;20067;-56
2022/09/25 00:14:03;;;;;;;3.70;1.70;;;19.40;70.20;;;;;;5071216;28;20032;-57
2022/09/25 00:16:32;;;;;;;3.60;1.67;;;19.40;70.30;;;;;;5071882;28;20029;-55
2022/09/25 00:21:52;;;;;;;4.05;1.92;;;19.30;70.60;;;;;;5071634;28;20078;-56
2022/09/25 00:24:21;;;;;;;5.45;1.70;;;19.30;71.10;;;;;;5071239;28;20103;-56
2022/09/25 00:26:49;;;;;;;4.32;1.80;;;19.40;71.20;;;;;;5070090;28;20108;-56
2022/09/25 00:29:19;;;;;;;3.83;1.70;;;19.40;71.40;;;;;;5071000;28;20467;-56
2022/09/25 00:31:47;;;;;;;3.95;1.73;;;19.40;71.40;;;;;;5071535;28;20443;-56
2022/09/25 00:34:15;;;;;;;4.72;1.70;;;19.40;71.20;;;;;;5071361;28;20479;-55
2022/09/25 00:36:43;;;;;;;3.50;1.40;;;19.40;71.10;;;;;;5071389;28;20024;-56
2022/09/25 00:39:11;;;;;;;3.95;1.60;;;19.40;71.20;;;;;;5070902;28;20120;-57
2022/09/25 00:41:39;;;;;;;3.67;1.42;;;19.50;71.20;;;;;;5069929;28;20055;-56
2022/09/25 00:44:45;;;;;;;3.60;1.60;;;19.50;71.00;;;;;;5052681;28;20035;-56
2022/09/25 00:47:18;;;;;;;4.82;1.58;;;19.50;70.40;;;;;;5069629;28;20094;-56
2022/09/25 00:49:47;;;;;;;5.45;1.75;;;19.50;69.40;;;;;;5071103;28;20387;-56
2022/09/25 00:52:16;;;;;;;4.18;1.65;;;19.40;69.30;;;;;;5069529;28;20514;-56
2022/09/25 00:54:51;;;;;;;4.00;1.65;;;19.40;69.50;;;;;;5069384;28;20448;-56
2022/09/25 00:57:25;;;;;;;3.67;1.60;;;19.40;69.60;;;;;;5069061;28;20847;-56
2022/09/25 00:59:58;;;;;;;4.15;1.60;;;19.50;69.90;;;;;;5069577;28;20062;-56
2022/09/25 01:02:34;;;;;;;3.28;1.48;;;19.50;69.60;;;;;;5071260;28;20060;-56
2022/09/25 01:05:07;;;;;;;4.43;1.77;;;19.50;68.70;;;;;;5070739;28;20460;-56
2022/09/25 01:07:39;;;;;;;3.17;1.30;;;19.50;68.90;;;;;;5070773;28;20024;-56
2022/09/25 01:10:09;;;;;;;4.15;1.70;;;19.50;68.60;;;;;;5070515;28;20136;-56
2022/09/25 01:12:42;;;;;;;4.28;1.70;;;19.40;67.00;;;;;;5069656;28;20056;-56
2022/09/25 01:15:12;;;;;;;3.80;1.63;;;19.40;67.30;;;;;;5069352;28;20028;-56
2022/09/25 01:17:53;;;;;;;5.07;1.40;;;19.40;67.70;;;;;;5070499;28;20051;-56
2022/09/25 01:20:54;;;;;;;4.10;1.42;;;19.50;68.10;;;;;;5069443;28;20025;-56
2022/09/25 01:23:50;;;;;;;4.78;1.70;;;19.40;66.90;;;;;;5068948;28;20085;-56
2022/09/25 01:26:39;;;;;;;4.90;1.48;;;19.40;66.50;;;;;;5070588;28;20555;-56
2022/09/25 01:29:16;;;;;;;4.65;1.52;;;19.40;66.60;;;;;;5068542;28;20025;-55
2022/09/25 01:32:18;;;;;;;4.82;1.50;;;19.40;66.80;;;;;;5069041;28;20067;-56
2022/09/25 01:35:02;;;;;;;3.60;1.63;;;19.50;66.90;;;;;;5070552;28;20035;-55
2022/09/25 01:37:51;;;;;;;4.25;1.70;;;19.40;66.60;;;;;;5070320;28;20091;-55
2022/09/25 01:40:25;;;;;;;4.57;1.98;;;19.50;66.10;;;;;;5069985;28;20178;-54
2022/09/25 01:43:23;;;;;;;3.63;1.40;;;19.50;65.80;;;;;;5069702;28;20029;-55
2022/09/25 01:46:00;;;;;;;3.67;1.55;;;19.50;66.20;;;;;;5070367;28;20024;-55
2022/09/25 01:48:31;;;;;;;4.00;1.70;;;19.50;65.80;;;;;;5070675;28;20436;-55
2022/09/25 01:51:18;;;;;;;3.47;1.40;;;19.50;64.90;;;;;;5070134;28;20068;-55
2022/09/25 01:53:54;;;;;;;3.60;1.40;;;19.50;64.40;;;;;;5069915;28;20103;-55
2022/09/25 01:56:34;;;;;;;3.35;1.40;;;19.50;63.80;;;;;;5068825;28;20025;-55
2022/09/25 01:59:12;;;;;;;4.07;1.60;;;19.50;63.80;;;;;;5068525;28;20470;-55
2022/09/25 02:01:43;;;;;;;3.97;1.48;;;19.50;63.80;;;;;;5070171;28;20035;-55
2022/09/25 02:04:17;;;;;;;3.35;1.40;;;19.60;63.80;;;;;;5070104;28;20027;-55
2022/09/25 02:06:49;;;;;;;3.33;1.40;;;19.60;63.80;;;;;;5070002;28;20056;-55
2022/09/25 02:09:52;;;;;;;3.53;1.50;;;19.60;63.60;;;;;;5069814;28;20033;-57
2022/09/25 02:12:33;;;;;;;3.85;1.40;;;19.60;63.80;;;;;;5061647;28;20721;-56
2022/09/25 02:15:09;;;;;;;4.30;1.50;;;19.60;63.80;;;;;;5068959;28;20029;-57
2022/09/25 02:21:04;;;;;;;3.58;1.50;;;19.60;62.80;;;;;;5070084;28;20109;-56
2022/09/25 02:23:56;;;;;;;4.53;1.60;;;19.60;62.60;;;;;;5070719;28;20017;-57
2022/09/25 02:26:33;;;;;;;4.63;1.50;;;19.60;62.50;;;;;;5073828;28;20024;-57
2022/09/25 02:29:02;;;;;;;3.15;1.35;;;19.60;63.00;;;;;;5071822;28;20033;-57
2022/09/25 02:31:39;;;;;;;3.20;1.40;;;19.60;63.00;;;;;;5074024;28;20493;-57
2022/09/25 02:34:08;;;;;;;4.03;1.40;;;19.60;63.60;;;;;;5072314;28;20028;-56
2022/09/25 02:36:36;;;;;;;3.25;1.30;;;19.60;63.80;;;;;;5073580;28;20540;-56
2022/09/25 02:39:07;;;;;;;4.22;1.40;;;19.60;64.10;;;;;;5073300;28;20363;-56
2022/09/25 02:41:38;;;;;;;4.18;1.55;;;19.60;64.00;;;;;;5072159;28;20060;-56
2022/09/25 02:44:36;;;;;;;3.70;1.43;;;19.60;64.40;;;;;;5073126;28;20109;-56
2022/09/25 02:47:25;;;;;;;3.92;1.50;;;19.60;64.90;;;;;;5073200;28;20275;-57
2022/09/25 02:50:16;;;;;;;3.60;1.50;;;19.60;65.10;;;;;;5073326;28;20032;-56
2022/09/25 02:52:55;;;;;;;3.70;1.52;;;19.60;65.10;;;;;;5072011;28;20040;-56
2022/09/25 02:56:02;;;;;;;4.28;1.30;;;19.60;64.90;;;;;;5071769;28;20032;-56
2022/09/25 02:58:40;;;;;;;3.58;1.50;;;19.60;65.20;;;;;;4994706;28;20029;-56
2022/09/25 03:01:12;;;;;;;3.28;1.27;;;19.60;65.60;;;;;;5011355;28;20030;-56
2022/09/25 03:03:41;;;;;;;;;;;19.70;65.70;;;;;;5049512;28;20036;-56
2022/09/25 03:06:09;;;;;;;3.60;1.40;;;19.70;65.70;;;;;;5071882;28;19904;-56
2022/09/25 03:08:43;;;;;;;3.25;1.30;;;19.70;65.50;;;;;;5072820;28;20109;-56
2022/09/25 03:11:14;;;;;;;5.93;1.65;;;19.70;64.80;;;;;;5071593;28;20068;-56
2022/09/25 03:13:43;;;;;;;3.63;1.58;;;19.60;63.70;;;;;;5072440;28;20105;-56
2022/09/25 03:16:40;;;;;;;4.30;1.50;;;19.70;63.40;;;;;;5072905;28;20074;-57
2022/09/25 03:19:09;;;;;;;3.67;1.58;;;19.70;63.20;;;;;;5045209;28;20032;-56
2022/09/25 03:21:37;;;;;;;4.22;1.50;;;19.70;63.10;;;;;;5072760;28;20360;-56
2022/09/25 03:24:05;;;;;;;4.40;1.27;;;19.70;62.90;;;;;;5072468;28;20536;-57
2022/09/25 03:26:33;;;;;;;3.78;1.40;;;19.70;63.40;;;;;;5071646;28;20035;-55
2022/09/25 03:29:02;;;;;;;3.47;1.40;;;19.70;64.20;;;;;;5072246;28;20095;-56
2022/09/25 03:31:30;;;;;;;4.35;1.48;;;19.70;64.50;;;;;;5072506;28;20072;-57
2022/09/25 03:33:59;;;;;;;4.00;1.58;;;19.70;64.60;;;;;;5072890;28;20025;-56
2022/09/25 03:36:29;;;;;;;4.07;1.40;;;19.70;64.90;;;;;;5072303;28;20025;-56
2022/09/25 03:38:58;;;;;;;4.20;1.42;;;19.70;64.60;;;;;;5072494;28;20082;-56
2022/09/25 03:41:34;;;;;;;3.70;1.50;;;19.70;64.50;;;;;;5072769;28;20578;-56
2022/09/25 03:44:03;;;;;;;3.70;1.40;;;19.70;64.90;;;;;;5071876;28;20028;-56
2022/09/25 03:46:33;;;;;;;4.47;1.38;;;19.70;65.30;;;;;;5072360;28;20047;-56
2022/09/25 03:49:02;;;;;;;4.25;1.42;;;19.70;65.60;;;;;;5072268;28;20471;-56
2022/09/25 03:51:32;;;;;;;3.30;1.40;;;19.70;65.40;;;;;;5071056;28;20036;-57
2022/09/25 03:54:02;;;;;;;3.08;1.40;;;19.70;65.00;;;;;;5070445;28;20070;-56
2022/09/25 03:56:31;;;;;;;3.25;1.25;;;19.70;65.00;;;;;;5071165;28;20025;-56
2022/09/25 03:58:59;;;;;;;3.22;1.30;;;19.70;63.80;;;;;;5070732;28;20064;-56
2022/09/25 04:01:28;;;;;;;3.53;1.33;;;19.70;64.50;;;;;;5072593;28;20386;-55
2022/09/25 04:03:56;;;;;;;4.30;1.40;;;19.70;64.70;;;;;;5072236;28;20112;-55
2022/09/25 04:06:25;;;;;;;3.72;1.35;;;19.80;63.70;;;;;;5070556;28;20395;-56
2022/09/25 04:08:54;;;;;;;4.45;1.40;;;19.80;63.50;;;;;;5053855;28;20028;-56
2022/09/25 04:11:23;;;;;;;5.63;1.27;;;19.80;63.70;;;;;;5070445;28;20079;-55
2022/09/25 04:13:52;;;;;;;3.42;1.35;;;19.80;64.30;;;;;;5071194;28;20016;-56
2022/09/25 04:16:20;;;;;;;4.43;1.52;;;19.80;64.70;;;;;;5070647;28;20360;-56
2022/09/25 04:18:50;;;;;;;6.03;1.38;;;19.80;65.00;;;;;;5072005;28;20410;-56
2022/09/25 04:21:17;;;;;;;4.40;1.50;;;19.80;64.80;;;;;;5071563;28;20016;-55
2022/09/25 04:24:47;;;;;;;4.90;1.60;;;19.80;64.80;;;;;;5071294;28;20032;-55
2022/09/25 04:26:34;;;;;;;4.82;1.60;;;19.80;64.70;;;;;;5071876;28;20067;-56
2022/09/25 04:29:02;;;;;;;6.60;1.92;;;19.80;64.90;;;;;;5070929;28;20116;-56
2022/09/25 04:31:32;;;;;;;3.70;1.42;;;19.80;64.90;;;;;;5071314;28;20437;-56
2022/09/25 04:34:01;;;;;;;4.05;1.35;;;19.80;65.00;;;;;;5071183;28;20082;-60
2022/09/25 04:36:29;;;;;;;4.38;1.50;;;19.80;65.20;;;;;;5070437;28;20365;-56
2022/09/25 04:38:57;;;;;;;5.05;1.40;;;19.80;65.40;;;;;;5070032;28;20391;-56
2022/09/25 04:41:26;;;;;;;4.65;1.50;;;19.80;65.50;;;;;;5071815;28;20040;-56
2022/09/25 04:43:53;;;;;;;4.00;1.42;;;19.80;65.60;;;;;;5069160;28;20036;-56
2022/09/25 04:46:22;;;;;;;4.97;1.48;;;19.80;65.70;;;;;;5070863;28;20103;-56
2022/09/25 04:48:50;;;;;;;4.90;1.50;;;19.80;65.80;;;;;;5070537;28;20104;-56
2022/09/25 04:51:18;;;;;;;4.45;1.40;;;19.80;66.50;;;;;;5069536;28;20040;-56
2022/09/25 04:53:46;;;;;;;4.65;1.40;;;19.80;65.90;;;;;;5070760;28;20103;-56
2022/09/25 04:56:15;;;;;;;4.82;1.63;;;19.80;66.00;;;;;;5069441;28;20095;-56
2022/09/25 04:58:48;;;;;;;5.22;1.63;;;19.80;66.00;;;;;;5070445;28;20448;-55
2022/09/25 05:01:19;;;;;;;3.15;1.27;;;19.80;65.80;;;;;;5070997;28;20033;-55
2022/09/25 05:03:49;;;;;;;3.65;1.40;;;19.80;65.90;;;;;;5070720;28;20024;-56
2022/09/25 05:06:17;;;;;;;4.75;1.52;;;19.80;65.80;;;;;;5070831;28;20017;-55
2022/09/25 05:08:51;;;;;;;4.32;1.65;;;19.90;66.00;;;;;;5066864;28;20418;-56
2022/09/25 05:11:20;;;;;;;4.00;1.40;;;19.90;66.00;;;;;;5065261;28;20063;-55
2022/09/25 05:13:52;;;;;;;4.45;1.50;;;19.90;66.20;;;;;;5062041;28;20032;-55
2022/09/25 05:16:20;;;;;;;4.53;1.75;;;19.90;66.40;;;;;;5050782;28;20044;-55
2022/09/25 05:18:48;;;;;;;3.88;1.35;;;19.90;66.20;;;;;;5065627;28;20029;-56
2022/09/25 05:21:17;;;;;;;5.47;1.50;;;20.00;66.20;;;;;;5069223;28;20497;-57
2022/09/25 05:23:45;;;;;;;4.10;1.40;;;20.00;66.20;;;;;;5071809;28;20020;-55
2022/09/25 05:26:13;;;;;;;4.63;1.50;;;20.00;65.90;;;;;;5069719;28;20387;-54
2022/09/25 05:28:41;;;;;;;5.35;1.30;;;20.00;65.80;;;;;;5066432;28;20017;-55
2022/09/25 05:31:10;;;;;;;4.90;1.58;;;20.10;65.80;;;;;;5070582;28;20503;-55
2022/09/25 05:33:38;;;;;;;4.70;1.38;;;20.10;65.60;;;;;;5068325;28;20050;-55
2022/09/25 05:36:07;;;;;;;3.63;1.60;;;20.10;65.50;;;;;;5070966;28;20028;-54
2022/09/25 05:38:38;;;;;;;4.00;1.40;;;20.10;65.40;;;;;;5051781;28;20102;-57
2022/09/25 05:41:10;;;;;;;4.15;1.40;;;20.10;65.30;;;;;;5066759;28;20047;-55
2022/09/25 05:43:43;;;;;;;7.45;1.63;;;20.10;64.80;;;;;;5063611;28;20108;-55
2022/09/25 05:46:12;;;;;;;4.35;1.55;;;20.10;64.80;;;;;;5068933;28;20029;-55
2022/09/25 05:48:40;;;;;;;4.00;1.55;;;20.10;64.60;;;;;;5077720;28;20021;-55
2022/09/25 05:51:08;;;;;;;4.63;1.50;;;20.10;64.60;;;;;;5059143;28;20032;-55
2022/09/25 05:53:37;;;;;;;5.05;1.52;;;20.10;64.40;;;;;;5068738;28;20021;-54
2022/09/25 05:56:05;;;;;;;4.25;1.30;;;20.20;64.60;;;;;;5064631;28;20027;-54
2022/09/25 05:58:34;;;;;;;4.45;1.33;;;20.10;64.10;;;;;;5078547;28;20379;-55
2022/09/25 06:01:04;;;;;;;4.05;1.20;;;20.10;64.60;;;;;;5074453;28;20016;-55
2022/09/25 06:03:32;;;;;;;4.30;1.60;;;20.10;64.60;;;;;;5086691;28;20031;-54
2022/09/25 06:06:01;;;;;;;6.03;1.38;;;20.20;64.50;;;;;;5062021;28;20082;-55
2022/09/25 06:08:30;;;;;;;4.63;1.30;;;20.20;64.70;;;;;;5081921;28;20046;-54
2022/09/25 06:11:00;;;;;;;3.35;1.35;;;20.10;64.60;;;;;;5079892;28;20037;-55
2022/09/25 06:13:31;;;;;;;4.97;1.30;;;20.10;64.60;;;;;;5070468;28;20073;-53
2022/09/25 06:15:59;;;;;;;;;;;20.20;65.10;;;;;;5071217;28;20382;-54
2022/09/25 06:18:28;;;;;;;5.22;1.58;;;20.20;66.10;;;;;;5052852;28;19917;-54
2022/09/25 06:21:04;;;;;;;6.45;1.58;;;20.20;66.00;;;;;;5063953;28;20031;-54
2022/09/25 06:23:32;;;;;;;5.10;1.63;;;20.20;66.10;;;;;;5064785;28;20036;-55
2022/09/25 06:26:02;;;;;;;4.85;1.25;;;20.20;65.90;;;;;;5053683;28;20472;-55
2022/09/25 06:28:32;;;;;;;5.47;1.55;;;20.20;66.00;;;;;;5053386;28;20570;-55
2022/09/25 06:31:01;;;;;;;7.18;1.70;;;20.10;66.00;;;;;;5057134;28;20056;-54
2022/09/25 06:33:29;;;;;;;5.93;1.50;;;20.20;66.00;;;;;;5057190;28;20013;-55
2022/09/25 06:35:59;;;;;;;4.45;1.48;;;20.10;66.40;;;;;;5061534;28;20048;-55
2022/09/25 06:38:27;;;;;;;5.63;1.80;;;20.20;66.10;;;;;;5056152;28;20042;-55
2022/09/25 06:40:59;;;;;;;4.75;1.60;;;20.10;66.20;;;;;;5066554;28;20059;-54
2022/09/25 06:43:28;;;;;;;4.97;1.95;;;20.10;66.60;;;;;;5064555;28;20031;-54
2022/09/25 06:46:01;;;;;;;4.22;1.60;;;20.10;66.60;;;;;;5073515;28;20029;-54
2022/09/25 06:48:29;;;;;;;4.07;1.40;;;20.10;66.60;;;;;;5068395;28;20029;-54
2022/09/25 06:50:59;;;;;;;2.88;1.02;;;20.10;66.60;;;;;;5068049;28;20041;-54
2022/09/25 06:53:28;;;;;;;4.35;1.50;;;20.10;66.60;;;;;;5058765;28;20021;-54
2022/09/25 06:55:59;;;;;;;3.80;1.45;;;20.10;66.70;;;;;;5053392;28;20025;-53
2022/09/25 06:58:29;;;;;;;6.13;1.40;;;20.10;66.70;;;;;;5055376;28;20362;-53
2022/09/25 07:00:57;;;;;;;4.40;1.60;;;20.10;66.70;;;;;;5058328;28;20041;-54
2022/09/25 07:03:44;;;;;;;3.95;1.40;;;20.10;66.70;;;;;;5090790;28;20077;-54
2022/09/25 07:06:25;;;;;;;4.28;1.35;;;20.00;66.80;;;;;;5072841;28;20021;-53
2022/09/25 07:08:55;;;;;;;4.50;1.40;;;20.10;67.10;;;;;;5041235;28;20044;-53
2022/09/25 07:11:26;;;;;;;4.72;1.63;;;20.10;67.30;;;;;;5056312;28;20037;-53
2022/09/25 07:13:55;;;;;;;3.55;1.30;;;20.10;67.60;;;;;;5069418;28;20021;-54
2022/09/25 07:16:27;;;;;;;5.65;1.38;;;20.10;67.40;;;;;;5071013;28;20048;-55
2022/09/25 07:19:02;;;;;;;7.03;1.52;;;20.10;67.40;;;;;;5070896;28;20032;-53
2022/09/25 07:21:31;;;;;;;4.05;1.30;;;20.10;67.20;;;;;;5070176;28;20029;-54
2022/09/25 07:23:58;;;;;;;5.50;1.70;;;20.10;67.20;;;;;;5054687;28;20135;-53
2022/09/25 07:26:32;;;;;;;4.57;1.30;;;20.00;67.30;;;;;;5070488;28;20066;-53
2022/09/25 07:29:03;;;;;;;4.30;1.42;;;20.00;67.40;;;;;;5061720;28;20063;-54
2022/09/25 07:31:33;;;;;;;4.03;1.30;;;20.10;67.60;;;;;;5052501;28;20029;-54
2022/09/25 07:34:07;;;;;;;3.55;1.25;;;20.00;67.60;;;;;;5067528;28;20017;-53
2022/09/25 07:36:41;;;;;;;3.67;1.30;;;20.00;67.70;;;;;;5055144;28;20450;-53
2022/09/25 07:39:10;;;;;;;5.53;1.40;;;20.00;67.70;;;;;;5061286;28;20388;-54
2022/09/25 07:41:37;;;;;;;3.35;1.33;;;20.00;67.80;;;;;;5065557;28;20028;-54
2022/09/25 07:44:06;;;;;;;6.03;1.73;;;19.90;68.00;;;;;;5070803;28;20484;-55
2022/09/25 07:46:34;;;;;;;5.47;1.58;;;19.90;68.10;;;;;;5059750;28;20029;-55
2022/09/25 07:49:02;;;;;;;3.70;1.38;;;19.90;68.20;;;;;;5065173;28;20036;-55
2022/09/25 07:51:31;;;;;;;4.93;1.67;;;19.90;68.60;;;;;;5060260;28;20033;-54
2022/09/25 07:53:59;;;;;;;3.50;1.40;;;19.90;68.90;;;;;;5066395;28;20035;-54
2022/09/25 07:56:27;;;;;;;4.25;1.40;;;20.00;68.90;;;;;;5059668;28;20040;-55
2022/09/25 07:58:55;;;;;;;4.38;1.50;;;20.00;69.30;;;;;;5064550;28;20117;-55
2022/09/25 08:01:23;;;;;;;4.55;1.45;;;20.00;69.40;;;;;;5069533;28;20050;-55
2022/09/25 08:03:52;;;;;;;5.80;2.00;;;20.00;69.10;;;;;;5070960;28;20032;-55
2022/09/25 08:06:20;;;;;;;4.60;1.58;;;20.00;68.70;;;;;;5057644;28;20025;-55
2022/09/25 08:08:49;;;;;;;5.20;1.50;;;20.00;69.00;;;;;;5054954;28;20071;-55
2022/09/25 08:11:17;;;;;;;5.82;1.65;;;20.00;68.80;;;;;;5058517;28;20387;-55
2022/09/25 08:13:46;;;;;;;6.32;1.58;;;20.00;69.40;;;;;;5070344;28;20031;-56
2022/09/25 08:16:17;;;;;;;4.40;1.80;;;20.00;69.70;;;;;;5077157;28;20028;-56
2022/09/25 08:18:47;;;;;;;6.20;1.98;;;20.00;69.80;;;;;;5059257;28;20109;-55
2022/09/25 08:21:17;;;;;;;5.43;1.98;;;20.00;69.70;;;;;;5059161;28;20122;-54
2022/09/25 08:23:51;;;;;;;4.65;1.90;;;20.00;70.10;;;;;;5080400;28;20035;-55
2022/09/25 08:26:21;;;;;;;5.13;1.88;;;20.00;69.90;;;;;;5091771;28;20032;-54
2022/09/25 08:28:50;;;;;;;8.15;1.80;;;20.00;70.20;;;;;;5076503;28;20025;-54
2022/09/25 08:31:20;;;;;;;5.95;1.80;;;20.00;70.40;;;;;;5050007;28;20087;-54
2022/09/25 08:33:49;;;;;;;5.40;1.83;;;20.00;70.70;;;;;;5050657;28;20017;-55
2022/09/25 08:36:18;;;;;;;5.13;1.83;;;20.00;70.90;;;;;;5053360;28;20460;-55
2022/09/25 08:38:46;;;;;;;4.63;1.98;;;20.10;71.10;;;;;;5056279;28;20025;-55
2022/09/25 08:41:24;;;;;;;7.93;1.90;;;20.10;71.50;;;;;;5060946;28;20017;-54
2022/09/25 08:43:52;;;;;;;6.20;2.28;;;20.10;71.60;;;;;;5070498;28;20098;-54
2022/09/25 08:50:14;;;;;;;8.40;3.33;;;20.10;71.90;;;;;;5008665;28;20030;-54
2022/09/25 08:52:47;;;;;;;8.43;3.28;;;20.10;72.10;;;;;;5013374;28;20129;-53
2022/09/25 08:58:31;;;;;;;12.50;5.63;;;20.10;74.30;;;;;;5049520;28;20115;-54
2022/09/25 09:01:05;;;;;;;11.30;4.47;;;20.10;73.90;;;;;;5066379;28;20302;-55
2022/09/25 09:03:46;;;;;;;9.65;4.05;;;20.10;73.70;;;;;;5069894;28;20086;-55
2022/09/25 09:06:16;;;;;;;7.00;3.53;;;20.10;73.50;;;;;;5058921;28;20024;-55
2022/09/25 09:09:10;;;;;;;6.30;3.33;;;20.10;73.50;;;;;;5049812;28;20020;-54
2022/09/25 09:12:00;;;;;;;8.82;3.60;;;20.10;73.40;;;;;;5057067;28;20064;-55
2022/09/25 09:14:33;;;;;;;8.73;2.88;;;20.10;73.40;;;;;;5059289;28;20021;-54
2022/09/25 09:17:20;;;;;;;9.30;2.92;;;20.00;73.40;;;;;;5064030;28;20115;-55
2022/09/25 09:20:01;;;;;;;6.03;2.78;;;20.00;73.30;;;;;;5065050;28;20035;-55
2022/09/25 09:22:36;;;;;;;8.73;2.90;;;20.00;73.40;;;;;;5058270;28;20068;-56
2022/09/25 09:25:27;;;;;;;6.72;2.60;;;20.00;73.80;;;;;;5069001;28;20108;-56
2022/09/25 09:28:27;;;;;;;6.00;2.53;;;20.00;73.70;;;;;;5068915;28;20033;-54
2022/09/25 09:31:19;;;;;;;7.28;2.55;;;20.00;73.70;;;;;;5068338;28;20039;-56
2022/09/25 09:34:33;;;;;;;5.85;2.80;;;20.00;73.80;;;;;;5078277;28;20091;-56
2022/09/25 09:37:14;;;;;;;7.75;3.15;;;20.00;73.80;;;;;;5060654;28;20029;-55
2022/09/25 09:39:58;;;;;;;;;;;20.00;73.90;;;;;;5063490;28;20041;-55
2022/09/25 09:42:31;;;;;;;6.55;3.38;;;20.00;74.20;;;;;;5063577;28;19912;-54
2022/09/25 09:45:13;;;;;;;8.57;3.38;;;20.00;74.90;;;;;;5068247;28;20025;-56
2022/09/25 09:48:18;;;;;;;10.60;3.67;;;20.00;76.00;;;;;;5048386;28;20430;-55
2022/09/25 09:50:52;;;;;;;6.50;3.38;;;20.00;75.90;;;;;;5054382;28;20479;-55
2022/09/25 09:53:38;;;;;;;7.30;3.13;;;20.00;75.90;;;;;;5069988;28;20055;-60
2022/09/25 09:56:47;;;;;;;8.73;3.20;;;20.00;75.80;;;;;;5069058;28;20035;-55
2022/09/25 09:59:49;;;;;;;7.80;3.30;;;20.00;76.30;;;;;;4972050;28;20030;-54
2022/09/25 10:02:41;;;;;;;9.73;3.45;;;20.10;76.60;;;;;;5022725;28;20515;-54
2022/09/25 10:05:43;;;;;;;7.57;4.20;;;20.10;77.80;;;;;;5067538;28;20031;-54
2022/09/25 10:08:11;;;;;;;6.68;3.60;;;20.10;79.30;;;;;;5043359;28;20060;-54
2022/09/25 10:10:43;;;;;;;11.15;3.40;;;20.10;79.30;;;;;;5065823;28;20025;-55
2022/09/25 10:13:23;;;;;;;6.72;3.42;;;20.20;81.40;;;;;;5083236;28;20707;-54
2022/09/25 10:16:10;;;;;;;7.55;3.10;;;20.20;82.30;;;;;;5077104;28;20021;-56
2022/09/25 10:18:41;;;;;;;7.03;3.38;;;20.20;82.50;;;;;;5066652;28;20340;-52
2022/09/25 10:21:20;;;;;;;9.13;3.40;;;20.20;80.90;;;;;;5071274;28;20027;-53
2022/09/25 10:23:49;;;;;;;6.97;2.92;;;20.20;79.30;;;;;;5071222;28;20019;-53
2022/09/25 10:26:34;;;;;;;7.88;3.15;;;20.20;79.80;;;;;;5081313;28;20035;-53
2022/09/25 10:29:24;;;;;;;6.43;3.03;;;20.20;80.10;;;;;;5089285;28;20110;-53
2022/09/25 10:32:02;;;;;;;6.63;3.00;;;20.10;79.20;;;;;;5067607;28;20028;-53
2022/09/25 10:34:32;;;;;;;6.85;3.00;;;20.10;79.70;;;;;;5052343;28;20175;-55
2022/09/25 10:37:19;;;;;;;6.57;2.80;;;20.10;79.50;;;;;;5048466;28;20389;-54
2022/09/25 10:40:07;;;;;;;5.28;2.70;;;20.10;79.50;;;;;;5051093;28;20115;-52
2022/09/25 10:42:40;;;;;;;7.45;3.05;;;20.10;79.50;;;;;;5060065;28;20024;-54
2022/09/25 10:45:33;;;;;;;5.70;2.72;;;20.10;79.20;;;;;;5053855;28;20040;-54
2022/09/25 10:51:10;;;;;;;8.02;2.85;;;20.10;78.80;;;;;;5053082;28;20051;-53
2022/09/25 10:53:38;;;;;;;7.97;2.90;;;20.00;78.60;;;;;;5074914;28;20036;-54
2022/09/25 10:56:14;;;;;;;8.77;3.10;;;20.00;78.40;;;;;;5060277;28;20037;-52
2022/09/25 10:59:13;;;;;;;6.88;2.88;;;20.10;78.40;;;;;;5052476;28;20025;-54
2022/09/25 11:01:43;;;;;;;7.25;2.97;;;20.10;78.90;;;;;;5048712;28;20029;-54
2022/09/25 11:04:17;;;;;;;6.13;3.00;;;20.10;78.70;;;;;;5053303;28;20032;-54
2022/09/25 11:06:52;;;;;;;7.00;3.35;;;20.10;78.30;;;;;;5070532;28;20025;-55
2022/09/25 11:09:25;;;;;;;7.32;3.42;;;20.10;78.20;;;;;;5059558;28;20132;-55
2022/09/25 11:12:28;;;;;;;8.48;3.33;;;20.10;78.10;;;;;;5057880;28;20391;-53
2022/09/25 11:15:04;;;;;;;7.35;3.70;;;20.10;78.00;;;;;;5013206;28;20042;-55
2022/09/25 11:17:44;;;;;;;8.55;3.78;;;20.10;78.00;;;;;;5060456;28;20352;-55
2022/09/25 11:20:39;;;;;;;7.07;3.33;;;20.10;77.90;;;;;;5052537;28;20025;-54
2022/09/25 11:23:13;;;;;;;8.88;3.60;;;20.10;78.00;;;;;;5052863;28;20029;-55
2022/09/25 11:26:17;;;;;;;8.38;3.50;;;20.10;77.90;;;;;;5070507;28;20024;-55
2022/09/25 11:29:02;;;;;;;6.93;3.40;;;20.10;77.70;;;;;;5056305;28;20128;-55
2022/09/25 11:31:31;;;;;;;7.53;3.90;;;20.00;77.50;;;;;;5051967;28;20025;-56
2022/09/25 11:34:18;;;;;;;8.50;3.35;;;20.10;77.30;;;;;;5055110;28;20049;-53
2022/09/25 11:36:56;;;;;;;6.95;3.38;;;20.00;77.30;;;;;;5052297;28;20059;-53
2022/09/25 11:42:38;;;;;;;6.90;3.28;;;20.10;77.30;;;;;;5061275;28;20028;-55
2022/09/25 11:45:29;;;;;;;8.05;3.20;;;20.10;77.30;;;;;;5059842;28;20025;-53
2022/09/25 11:48:22;;;;;;;9.35;3.58;;;20.10;77.20;;;;;;5052427;28;20032;-53
2022/09/25 11:51:01;;;;;;;8.27;3.38;;;20.10;77.10;;;;;;5085181;28;20732;-53
2022/09/25 11:53:42;;;;;;;5.80;2.72;;;20.10;77.10;;;;;;5092621;28;20328;-54
2022/09/25 11:56:17;;;;;;;7.53;3.22;;;20.10;77.00;;;;;;5076145;28;20031;-54
2022/09/25 11:59:14;;;;;;;6.28;2.97;;;20.10;76.80;;;;;;5060951;28;20087;-54
2022/09/25 12:01:49;;;;;;;6.93;3.03;;;20.10;76.60;;;;;;5054061;28;20407;-53
2022/09/25 12:04:46;;;;;;;5.22;2.47;;;20.10;76.50;;;;;;5088816;28;20017;-54
2022/09/25 12:07:26;;;;;;;6.60;2.47;;;20.10;76.50;;;;;;5066045;28;20028;-54
2022/09/25 12:10:22;;;;;;;8.32;2.80;;;20.10;76.40;;;;;;5039681;28;20025;-53
2022/09/25 12:13:11;;;;;;;7.68;2.85;;;20.10;76.40;;;;;;5059118;28;20039;-54
2022/09/25 12:16:11;;;;;;;4.78;2.22;;;20.10;76.40;;;;;;5088800;28;20110;-54
2022/09/25 12:19:13;;;;;;;6.07;2.72;;;20.10;76.10;;;;;;5087116;28;20486;-54
2022/09/25 12:22:12;;;;;;;6.82;2.63;;;20.10;76.10;;;;;;5090814;28;20403;-54
2022/09/25 12:25:17;;;;;;;5.88;2.83;;;20.10;76.10;;;;;;5051441;28;20028;-54
2022/09/25 12:28:01;;;;;;;6.13;2.45;;;20.10;76.20;;;;;;5049911;28;20086;-56
2022/09/25 12:30:46;;;;;;;5.95;2.53;;;20.10;76.20;;;;;;5067579;28;20040;-54
2022/09/25 12:33:48;;;;;;;7.28;2.85;;;20.10;76.20;;;;;;5072562;28;20025;-55
2022/09/25 12:36:23;;;;;;;7.47;2.40;;;20.10;76.20;;;;;;5054055;28;20033;-55
2022/09/25 12:39:00;;;;;;;6.22;2.65;;;20.00;76.10;;;;;;5065594;28;20040;-54
2022/09/25 12:42:06;;;;;;;6.63;2.90;;;20.00;76.00;;;;;;5068907;28;20492;-56
2022/09/25 12:44:57;;;;;;;5.82;2.50;;;20.00;75.80;;;;;;5049795;28;20043;-54
2022/09/25 12:47:47;;;;;;;8.77;2.60;;;20.00;75.80;;;;;;5051588;28;20090;-55
2022/09/25 12:50:28;;;;;;;7.45;2.55;;;20.00;75.80;;;;;;5066940;28;20372;-54
2022/09/25 12:53:44;;;;;;;7.30;2.90;;;20.00;76.30;;;;;;5071396;28;20105;-55
2022/09/25 12:56:40;;;;;;;6.75;2.42;;;20.00;76.30;;;;;;5024836;28;20507;-54
2022/09/25 12:59:18;;;;;;;6.35;2.80;;;20.00;75.80;;;;;;5058615;28;20035;-55
2022/09/25 13:01:56;;;;;;;6.35;2.65;;;20.00;76.00;;;;;;5070788;28;20029;-54
2022/09/25 13:04:34;;;;;;;5.97;2.22;;;20.00;75.90;;;;;;5070794;28;20024;-55
2022/09/25 13:07:16;;;;;;;6.18;2.28;;;20.00;75.80;;;;;;5069390;28;20097;-55
2022/09/25 13:09:47;;;;;;;5.03;2.50;;;20.00;75.70;;;;;;5066106;28;20021;-54
2022/09/25 13:12:38;;;;;;;6.05;2.60;;;20.00;75.60;;;;;;5059345;28;20437;-54
2022/09/25 13:15:11;;;;;;;5.25;2.53;;;20.00;75.70;;;;;;5068600;28;20081;-55
2022/09/25 13:17:40;;;;;;;5.40;2.50;;;20.00;75.60;;;;;;5050244;28;20036;-55
2022/09/25 13:20:32;;;;;;;6.05;2.60;;;20.00;75.40;;;;;;5050542;28;20028;-55
2022/09/25 13:23:03;;;;;;;;;;;20.00;75.50;;;;;;5016069;28;20114;-55
2022/09/25 13:25:41;;;;;;;6.60;2.40;;;20.00;75.60;;;;;;5050418;28;19915;-55
2022/09/25 13:28:20;;;;;;;7.32;2.65;;;20.00;75.80;;;;;;5050017;28;20021;-55
2022/09/25 13:31:05;;;;;;;7.07;2.50;;;20.00;75.80;;;;;;5051449;28;20383;-55
2022/09/25 13:33:48;;;;;;;5.32;2.78;;;20.00;75.80;;;;;;5060994;28;20024;-55
2022/09/25 13:36:24;;;;;;;7.55;2.40;;;19.90;75.80;;;;;;5067359;28;20024;-55
2022/09/25 13:42:13;;;;;;;6.70;2.58;;;19.90;75.70;;;;;;5067902;28;20102;-54
2022/09/25 13:44:41;;;;;;;6.68;2.97;;;20.00;75.80;;;;;;5063470;28;20024;-55
2022/09/25 13:47:24;;;;;;;6.28;2.70;;;19.90;75.70;;;;;;5051686;28;20035;-55
2022/09/25 13:50:11;;;;;;;6.05;2.60;;;19.90;75.70;;;;;;5063842;28;20032;-54
2022/09/25 13:52:39;;;;;;;5.03;2.30;;;19.90;75.70;;;;;;5036184;28;20028;-55
2022/09/25 13:55:19;;;;;;;6.93;2.60;;;19.90;75.70;;;;;;5048725;28;20029;-55
2022/09/25 13:57:57;;;;;;;5.28;2.70;;;19.90;75.80;;;;;;5064210;28;20483;-55